sensor_id;sensor_type;location;lat;lon;timestamp;pressure;altitude;pressure_sealevel;temperature;humidity
68948;BME280;55996;49.546;7.400;2023-06-10T00:01:09;98348.50;;;16.74;90.78
68948;BME280;55996;49.546;7.400;2023-06-10T00:03:35;98350.16;;;16.77;91.37
68948;BME280;55996;49.546;7.400;2023-06-10T00:06:01;98343.03;;;16.50;94.85
68948;BME280;55996;49.546;7.400;2023-06-10T00:08:27;98343.09;;;16.63;93.73
68948;BME280;55996;49.546;7.400;2023-06-10T00:10:54;98348.44;;;16.76;92.10
68948;BME280;55996;49.546;7.400;2023-06-10T00:13:19;98346.59;;;16.64;93.01
68948;BME280;55996;49.546;7.400;2023-06-10T00:15:45;98354.22;;;16.54;93.88
68948;BME280;55996;49.546;7.400;2023-06-10T00:18:10;98356.97;;;16.52;95.22
68948;BME280;55996;49.546;7.400;2023-06-10T00:20:37;98346.50;;;16.51;96.57
68948;BME280;55996;49.546;7.400;2023-06-10T00:23:03;98346.69;;;16.48;97.88
68948;BME280;55996;49.546;7.400;2023-06-10T00:25:28;98343.69;;;16.39;95.91
68948;BME280;55996;49.546;7.400;2023-06-10T00:27:54;98346.31;;;16.39;97.14
68948;BME280;55996;49.546;7.400;2023-06-10T00:30:20;98348.78;;;16.42;97.40
68948;BME280;55996;49.546;7.400;2023-06-10T00:32:46;98345.00;;;16.46;96.11
68948;BME280;55996;49.546;7.400;2023-06-10T00:35:11;98335.22;;;16.34;96.06
68948;BME280;55996;49.546;7.400;2023-06-10T00:37:37;98342.97;;;16.23;97.17
68948;BME280;55996;49.546;7.400;2023-06-10T00:40:04;98345.31;;;16.27;97.31
68948;BME280;55996;49.546;7.400;2023-06-10T00:42:29;98340.69;;;16.17;98.17
68948;BME280;55996;49.546;7.400;2023-06-10T00:44:55;98344.66;;;16.24;99.26
68948;BME280;55996;49.546;7.400;2023-06-10T00:47:21;98347.28;;;16.24;97.77
68948;BME280;55996;49.546;7.400;2023-06-10T00:49:47;98348.50;;;16.33;96.87
68948;BME280;55996;49.546;7.400;2023-06-10T00:52:14;98338.81;;;16.19;98.35
68948;BME280;55996;49.546;7.400;2023-06-10T00:54:41;98343.50;;;16.13;99.26
68948;BME280;55996;49.546;7.400;2023-06-10T00:57:07;98344.84;;;16.21;97.98
68948;BME280;55996;49.546;7.400;2023-06-10T00:59:33;98347.09;;;16.27;98.51
68948;BME280;55996;49.546;7.400;2023-06-10T01:01:59;98346.72;;;16.04;100.00
68948;BME280;55996;49.546;7.400;2023-06-10T01:04:25;98356.03;;;15.95;100.00
68948;BME280;55996;49.546;7.400;2023-06-10T01:07:00;98339.56;;;15.92;100.00
68948;BME280;55996;49.546;7.400;2023-06-10T01:14:50;98351.56;;;15.81;100.00
68948;BME280;55996;49.546;7.400;2023-06-10T01:17:16;98356.63;;;15.70;100.00
68948;BME280;55996;49.546;7.400;2023-06-10T01:19:43;98361.44;;;15.78;100.00
68948;BME280;55996;49.546;7.400;2023-06-10T01:22:09;98357.94;;;15.77;100.00
68948;BME280;55996;49.546;7.400;2023-06-10T01:24:36;98354.94;;;15.69;100.00
68948;BME280;55996;49.546;7.400;2023-06-10T01:27:05;98355.50;;;15.74;100.00
68948;BME280;55996;49.546;7.400;2023-06-10T01:29:37;98363.41;;;15.74;100.00
68948;BME280;55996;49.546;7.400;2023-06-10T01:32:08;98362.84;;;15.69;100.00
68948;BME280;55996;49.546;7.400;2023-06-10T01:34:38;98367.00;;;15.73;100.00
68948;BME280;55996;49.546;7.400;2023-06-10T01:37:04;98368.13;;;15.69;100.00
68948;BME280;55996;49.546;7.400;2023-06-10T01:39:31;98370.09;;;15.65;100.00
68948;BME280;55996;49.546;7.400;2023-06-10T01:41:57;98364.88;;;15.64;100.00
68948;BME280;55996;49.546;7.400;2023-06-10T01:44:23;98357.06;;;15.48;100.00
68948;BME280;55996;49.546;7.400;2023-06-10T01:46:49;98368.22;;;15.37;100.00
68948;BME280;55996;49.546;7.400;2023-06-10T01:49:14;98368.53;;;15.47;100.00
68948;BME280;55996;49.546;7.400;2023-06-10T01:51:40;98367.50;;;15.49;100.00
68948;BME280;55996;49.546;7.400;2023-06-10T01:54:05;98362.22;;;15.49;100.00
68948;BME280;55996;49.546;7.400;2023-06-10T01:56:31;98378.78;;;15.52;100.00
68948;BME280;55996;49.546;7.400;2023-06-10T01:58:57;98367.66;;;15.46;100.00
68948;BME280;55996;49.546;7.400;2023-06-10T02:01:28;98369.38;;;15.47;100.00
68948;BME280;55996;49.546;7.400;2023-06-10T02:03:53;98378.91;;;15.34;100.00
68948;BME280;55996;49.546;7.400;2023-06-10T02:06:19;98379.91;;;15.47;100.00
68948;BME280;55996;49.546;7.400;2023-06-10T02:08:44;98377.22;;;15.33;100.00
68948;BME280;55996;49.546;7.400;2023-06-10T02:11:10;98385.53;;;15.41;100.00
68948;BME280;55996;49.546;7.400;2023-06-10T02:13:35;98373.16;;;15.27;100.00
68948;BME280;55996;49.546;7.400;2023-06-10T02:16:00;98362.41;;;15.16;100.00
68948;BME280;55996;49.546;7.400;2023-06-10T02:18:28;98385.81;;;15.21;100.00
68948;BME280;55996;49.546;7.400;2023-06-10T02:20:53;98384.41;;;15.15;100.00
68948;BME280;55996;49.546;7.400;2023-06-10T02:23:19;98385.41;;;15.12;100.00
68948;BME280;55996;49.546;7.400;2023-06-10T02:25:45;98392.97;;;15.19;100.00
68948;BME280;55996;49.546;7.400;2023-06-10T02:28:10;98386.19;;;15.14;100.00
68948;BME280;55996;49.546;7.400;2023-06-10T02:30:41;98390.34;;;15.19;100.00
68948;BME280;55996;49.546;7.400;2023-06-10T02:33:07;98396.66;;;15.00;100.00
68948;BME280;55996;49.546;7.400;2023-06-10T02:35:36;98386.03;;;15.01;100.00
68948;BME280;55996;49.546;7.400;2023-06-10T02:38:02;98390.00;;;14.93;100.00
68948;BME280;55996;49.546;7.400;2023-06-10T02:40:27;98394.84;;;14.84;100.00
68948;BME280;55996;49.546;7.400;2023-06-10T02:42:53;98397.09;;;14.92;100.00
68948;BME280;55996;49.546;7.400;2023-06-10T02:45:18;98396.31;;;14.90;100.00
68948;BME280;55996;49.546;7.400;2023-06-10T02:47:44;98390.53;;;14.83;100.00
68948;BME280;55996;49.546;7.400;2023-06-10T02:50:09;98396.06;;;14.95;100.00
68948;BME280;55996;49.546;7.400;2023-06-10T02:52:35;98395.88;;;14.98;100.00
68948;BME280;55996;49.546;7.400;2023-06-10T02:55:00;98387.28;;;14.94;100.00
68948;BME280;55996;49.546;7.400;2023-06-10T02:57:26;98391.13;;;14.89;100.00
68948;BME280;55996;49.546;7.400;2023-06-10T02:59:51;98383.72;;;14.79;100.00
68948;BME280;55996;49.546;7.400;2023-06-10T03:02:18;98387.38;;;14.77;100.00
68948;BME280;55996;49.546;7.400;2023-06-10T03:04:44;98395.88;;;14.82;100.00
68948;BME280;55996;49.546;7.400;2023-06-10T03:07:10;98389.09;;;14.94;100.00
68948;BME280;55996;49.546;7.400;2023-06-10T03:09:36;98392.66;;;14.93;100.00
68948;BME280;55996;49.546;7.400;2023-06-10T03:12:02;98387.72;;;14.87;100.00
68948;BME280;55996;49.546;7.400;2023-06-10T03:14:28;98392.41;;;14.81;100.00
68948;BME280;55996;49.546;7.400;2023-06-10T03:16:56;98395.03;;;14.81;100.00
68948;BME280;55996;49.546;7.400;2023-06-10T03:19:26;98391.47;;;14.82;100.00
68948;BME280;55996;49.546;7.400;2023-06-10T03:22:11;98380.41;;;14.76;100.00
68948;BME280;55996;49.546;7.400;2023-06-10T03:24:37;98392.56;;;14.78;100.00
68948;BME280;55996;49.546;7.400;2023-06-10T03:27:07;98377.59;;;14.63;100.00
68948;BME280;55996;49.546;7.400;2023-06-10T03:29:33;98383.38;;;14.69;100.00
68948;BME280;55996;49.546;7.400;2023-06-10T03:31:58;98401.13;;;14.66;100.00
68948;BME280;55996;49.546;7.400;2023-06-10T03:34:24;98400.28;;;14.65;100.00
68948;BME280;55996;49.546;7.400;2023-06-10T03:36:49;98400.78;;;14.72;100.00
68948;BME280;55996;49.546;7.400;2023-06-10T03:39:18;98402.09;;;14.63;100.00
68948;BME280;55996;49.546;7.400;2023-06-10T03:41:43;98400.97;;;14.69;100.00
68948;BME280;55996;49.546;7.400;2023-06-10T03:44:09;98408.69;;;14.72;100.00
68948;BME280;55996;49.546;7.400;2023-06-10T03:46:34;98410.09;;;14.62;100.00
68948;BME280;55996;49.546;7.400;2023-06-10T03:48:59;98407.88;;;14.54;100.00
68948;BME280;55996;49.546;7.400;2023-06-10T03:51:29;98417.22;;;14.60;100.00
68948;BME280;55996;49.546;7.400;2023-06-10T03:53:55;98403.91;;;14.63;100.00
68948;BME280;55996;49.546;7.400;2023-06-10T03:56:20;98401.13;;;14.66;100.00
68948;BME280;55996;49.546;7.400;2023-06-10T03:58:46;98408.28;;;14.62;100.00
68948;BME280;55996;49.546;7.400;2023-06-10T04:01:11;98404.53;;;14.68;100.00
68948;BME280;55996;49.546;7.400;2023-06-10T04:03:38;98400.78;;;14.72;100.00
68948;BME280;55996;49.546;7.400;2023-06-10T04:06:04;98409.03;;;14.48;100.00
68948;BME280;55996;49.546;7.400;2023-06-10T04:08:30;98408.56;;;14.58;100.00
68948;BME280;55996;49.546;7.400;2023-06-10T04:10:56;98413.19;;;14.70;100.00
68948;BME280;55996;49.546;7.400;2023-06-10T04:13:23;98415.41;;;14.78;100.00
68948;BME280;55996;49.546;7.400;2023-06-10T04:15:48;98421.69;;;14.75;100.00
68948;BME280;55996;49.546;7.400;2023-06-10T04:18:13;98418.13;;;14.76;100.00
68948;BME280;55996;49.546;7.400;2023-06-10T04:20:40;98410.13;;;14.78;100.00
68948;BME280;55996;49.546;7.400;2023-06-10T04:23:05;98421.59;;;14.93;100.00
68948;BME280;55996;49.546;7.400;2023-06-10T04:25:31;98417.13;;;14.95;100.00
68948;BME280;55996;49.546;7.400;2023-06-10T04:27:57;98428.38;;;14.97;100.00
68948;BME280;55996;49.546;7.400;2023-06-10T04:30:24;98409.72;;;15.01;100.00
68948;BME280;55996;49.546;7.400;2023-06-10T04:32:50;98429.50;;;15.09;100.00
68948;BME280;55996;49.546;7.400;2023-06-10T04:35:15;98415.84;;;15.02;100.00
68948;BME280;55996;49.546;7.400;2023-06-10T04:37:41;98434.44;;;15.15;100.00
68948;BME280;55996;49.546;7.400;2023-06-10T04:40:07;98431.53;;;15.36;100.00
68948;BME280;55996;49.546;7.400;2023-06-10T04:42:34;98432.84;;;15.43;100.00
68948;BME280;55996;49.546;7.400;2023-06-10T04:44:59;98431.09;;;15.43;100.00
68948;BME280;55996;49.546;7.400;2023-06-10T04:47:26;98420.44;;;15.45;100.00
68948;BME280;55996;49.546;7.400;2023-06-10T04:49:52;98432.31;;;15.68;100.00
68948;BME280;55996;49.546;7.400;2023-06-10T04:52:17;98428.19;;;15.78;100.00
68948;BME280;55996;49.546;7.400;2023-06-10T04:54:43;98428.19;;;15.78;100.00
68948;BME280;55996;49.546;7.400;2023-06-10T04:57:08;98421.75;;;15.84;100.00
68948;BME280;55996;49.546;7.400;2023-06-10T04:59:34;98432.03;;;16.03;100.00
68948;BME280;55996;49.546;7.400;2023-06-10T05:02:03;98420.66;;;16.03;100.00
68948;BME280;55996;49.546;7.400;2023-06-10T05:04:29;98432.53;;;16.24;100.00
68948;BME280;55996;49.546;7.400;2023-06-10T05:06:55;98423.97;;;16.35;100.00
68948;BME280;55996;49.546;7.400;2023-06-10T05:09:20;98425.38;;;16.41;100.00
68948;BME280;55996;49.546;7.400;2023-06-10T05:11:46;98428.50;;;16.48;100.00
68948;BME280;55996;49.546;7.400;2023-06-10T05:14:12;98421.06;;;16.40;100.00
68948;BME280;55996;49.546;7.400;2023-06-10T05:16:38;98423.47;;;16.72;100.00
68948;BME280;55996;49.546;7.400;2023-06-10T05:19:04;98414.22;;;16.79;100.00
68948;BME280;55996;49.546;7.400;2023-06-10T05:21:29;98423.56;;;16.99;100.00
68948;BME280;55996;49.546;7.400;2023-06-10T05:23:55;98424.22;;;17.30;100.00
68948;BME280;55996;49.546;7.400;2023-06-10T05:26:21;98425.50;;;17.65;100.00
68948;BME280;55996;49.546;7.400;2023-06-10T05:28:46;98415.50;;;17.83;98.34
68948;BME280;55996;49.546;7.400;2023-06-10T05:31:12;98418.00;;;18.12;95.44
68948;BME280;55996;49.546;7.400;2023-06-10T05:33:37;98419.91;;;18.22;91.34
68948;BME280;55996;49.546;7.400;2023-06-10T05:36:03;98425.81;;;18.39;89.11
68948;BME280;55996;49.546;7.400;2023-06-10T05:38:28;98426.97;;;18.48;88.15
68948;BME280;55996;49.546;7.400;2023-06-10T05:40:54;98429.91;;;18.69;87.11
68948;BME280;55996;49.546;7.400;2023-06-10T05:43:22;98423.88;;;18.80;83.61
68948;BME280;55996;49.546;7.400;2023-06-10T05:45:47;98410.91;;;19.01;84.90
68948;BME280;55996;49.546;7.400;2023-06-10T05:48:13;98422.38;;;19.26;83.01
68948;BME280;55996;49.546;7.400;2023-06-10T05:50:39;98427.97;;;19.34;81.15
68948;BME280;55996;49.546;7.400;2023-06-10T05:53:07;98423.66;;;19.44;82.28
68948;BME280;55996;49.546;7.400;2023-06-10T05:55:43;98425.03;;;19.50;79.02
68948;BME280;55996;49.546;7.400;2023-06-10T05:58:08;98426.53;;;19.65;76.41
68948;BME280;55996;49.546;7.400;2023-06-10T06:00:34;98429.22;;;19.77;76.85
68948;BME280;55996;49.546;7.400;2023-06-10T06:02:59;98426.69;;;19.99;76.30
68948;BME280;55996;49.546;7.400;2023-06-10T06:05:25;98433.22;;;20.18;73.41
68948;BME280;55996;49.546;7.400;2023-06-10T06:07:50;98429.84;;;20.27;73.84
68948;BME280;55996;49.546;7.400;2023-06-10T06:10:17;98419.59;;;20.34;74.07
68948;BME280;55996;49.546;7.400;2023-06-10T06:12:42;98430.00;;;20.60;73.01
68948;BME280;55996;49.546;7.400;2023-06-10T06:15:09;98426.97;;;20.87;72.09
68948;BME280;55996;49.546;7.400;2023-06-10T06:17:35;98420.34;;;20.93;70.57
68948;BME280;55996;49.546;7.400;2023-06-10T06:20:01;98429.03;;;21.06;69.76
68948;BME280;55996;49.546;7.400;2023-06-10T06:22:29;98421.16;;;21.05;68.62
68948;BME280;55996;49.546;7.400;2023-06-10T06:24:55;98421.66;;;21.10;67.60
68948;BME280;55996;49.546;7.400;2023-06-10T06:27:20;98424.97;;;21.35;68.43
68948;BME280;55996;49.546;7.400;2023-06-10T06:29:46;98426.16;;;21.31;67.30
68948;BME280;55996;49.546;7.400;2023-06-10T06:32:12;98416.00;;;21.36;68.09
68948;BME280;55996;49.546;7.400;2023-06-10T06:34:37;98410.31;;;21.40;66.59
68948;BME280;55996;49.546;7.400;2023-06-10T06:37:03;98426.56;;;21.70;65.26
68948;BME280;55996;49.546;7.400;2023-06-10T06:39:29;98418.31;;;21.94;63.38
68948;BME280;55996;49.546;7.400;2023-06-10T06:41:55;98421.44;;;21.99;63.67
68948;BME280;55996;49.546;7.400;2023-06-10T06:44:20;98416.44;;;22.06;63.25
68948;BME280;55996;49.546;7.400;2023-06-10T06:46:46;98410.44;;;22.14;61.20
68948;BME280;55996;49.546;7.400;2023-06-10T06:49:11;98412.34;;;22.02;60.80
68948;BME280;55996;49.546;7.400;2023-06-10T06:51:36;98439.50;;;21.96;60.86
68948;BME280;55996;49.546;7.400;2023-06-10T06:54:02;98434.47;;;22.02;62.07
68948;BME280;55996;49.546;7.400;2023-06-10T06:56:28;98437.41;;;22.20;60.95
68948;BME280;55996;49.546;7.400;2023-06-10T06:58:53;98442.22;;;22.27;60.97
68948;BME280;55996;49.546;7.400;2023-06-10T07:01:18;98437.84;;;22.25;60.90
68948;BME280;55996;49.546;7.400;2023-06-10T07:03:44;98426.53;;;22.33;59.89
68948;BME280;55996;49.546;7.400;2023-06-10T07:06:09;98432.53;;;22.78;60.24
68948;BME280;55996;49.546;7.400;2023-06-10T07:08:35;98428.25;;;23.06;57.18
68948;BME280;55996;49.546;7.400;2023-06-10T07:11:00;98433.78;;;22.83;58.71
68948;BME280;55996;49.546;7.400;2023-06-10T07:13:26;98414.00;;;22.86;58.21
68948;BME280;55996;49.546;7.400;2023-06-10T07:15:51;98429.00;;;23.18;56.70
68948;BME280;55996;49.546;7.400;2023-06-10T07:18:17;98424.09;;;23.23;57.45
68948;BME280;55996;49.546;7.400;2023-06-10T07:20:42;98430.03;;;23.46;56.11
68948;BME280;55996;49.546;7.400;2023-06-10T07:23:08;98426.81;;;23.72;55.03
68948;BME280;55996;49.546;7.400;2023-06-10T07:25:33;98430.63;;;23.99;57.22
68948;BME280;55996;49.546;7.400;2023-06-10T07:27:59;98427.06;;;24.08;54.96
68948;BME280;55996;49.546;7.400;2023-06-10T07:30:25;98420.38;;;23.94;54.82
68948;BME280;55996;49.546;7.400;2023-06-10T07:32:51;98428.66;;;23.72;54.92
68948;BME280;55996;49.546;7.400;2023-06-10T07:35:16;98424.13;;;24.11;54.73
68948;BME280;55996;49.546;7.400;2023-06-10T07:37:42;98431.50;;;24.37;54.22
68948;BME280;55996;49.546;7.400;2023-06-10T07:40:08;98431.97;;;24.23;52.95
68948;BME280;55996;49.546;7.400;2023-06-10T07:42:37;98423.94;;;24.32;54.83
68948;BME280;55996;49.546;7.400;2023-06-10T07:45:03;98422.44;;;24.20;54.46
68948;BME280;55996;49.546;7.400;2023-06-10T07:47:29;98425.66;;;24.61;53.61
68948;BME280;55996;49.546;7.400;2023-06-10T07:49:55;98423.28;;;24.96;53.36
68948;BME280;55996;49.546;7.400;2023-06-10T07:52:20;98427.44;;;24.80;51.32
68948;BME280;55996;49.546;7.400;2023-06-10T07:54:46;98430.50;;;25.13;54.14
68948;BME280;55996;49.546;7.400;2023-06-10T07:57:11;98420.25;;;24.81;50.31
68948;BME280;55996;49.546;7.400;2023-06-10T07:59:37;98426.16;;;24.85;51.16
68948;BME280;55996;49.546;7.400;2023-06-10T08:02:04;98424.47;;;25.29;50.20
68948;BME280;55996;49.546;7.400;2023-06-10T08:04:29;98419.03;;;25.03;50.21
68948;BME280;55996;49.546;7.400;2023-06-10T08:06:56;98424.88;;;25.35;49.78
68948;BME280;55996;49.546;7.400;2023-06-10T08:09:21;98429.84;;;25.29;49.55
68948;BME280;55996;49.546;7.400;2023-06-10T08:11:48;98427.03;;;25.67;49.91
68948;BME280;55996;49.546;7.400;2023-06-10T08:14:14;98422.81;;;25.65;49.89
68948;BME280;55996;49.546;7.400;2023-06-10T08:16:40;98431.25;;;25.52;49.18
68948;BME280;55996;49.546;7.400;2023-06-10T08:19:05;98427.19;;;25.48;49.40
68948;BME280;55996;49.546;7.400;2023-06-10T08:21:31;98427.19;;;25.48;49.57
68948;BME280;55996;49.546;7.400;2023-06-10T08:23:56;98433.47;;;25.74;50.30
68948;BME280;55996;49.546;7.400;2023-06-10T08:26:22;98419.63;;;25.79;50.79
68948;BME280;55996;49.546;7.400;2023-06-10T08:28:47;98422.63;;;26.02;48.14
68948;BME280;55996;49.546;7.400;2023-06-10T08:31:13;98417.78;;;26.24;49.18
68948;BME280;55996;49.546;7.400;2023-06-10T08:33:38;98418.94;;;26.48;49.64
68948;BME280;55996;49.546;7.400;2023-06-10T08:36:04;98413.34;;;26.67;48.12
68948;BME280;55996;49.546;7.400;2023-06-10T08:38:30;98410.84;;;27.17;47.35
68948;BME280;55996;49.546;7.400;2023-06-10T08:40:59;98418.94;;;27.33;46.57
68948;BME280;55996;49.546;7.400;2023-06-10T08:43:34;98407.00;;;27.19;46.28
68948;BME280;55996;49.546;7.400;2023-06-10T08:46:01;98417.03;;;27.09;44.34
68948;BME280;55996;49.546;7.400;2023-06-10T08:48:34;98406.97;;;27.11;45.13
68948;BME280;55996;49.546;7.400;2023-06-10T08:51:03;98415.75;;;27.21;46.44
68948;BME280;55996;49.546;7.400;2023-06-10T08:53:31;98414.34;;;26.66;46.43
68948;BME280;55996;49.546;7.400;2023-06-10T08:56:00;98413.94;;;26.87;45.87
68948;BME280;55996;49.546;7.400;2023-06-10T08:58:28;98408.63;;;27.04;45.66
68948;BME280;55996;49.546;7.400;2023-06-10T09:00:54;98406.81;;;26.70;45.56
68948;BME280;55996;49.546;7.400;2023-06-10T09:03:20;98406.19;;;27.35;45.33
68948;BME280;55996;49.546;7.400;2023-06-10T09:05:46;98402.56;;;27.61;44.66
68948;BME280;55996;49.546;7.400;2023-06-10T09:08:15;98405.72;;;26.89;45.33
68948;BME280;55996;49.546;7.400;2023-06-10T09:10:57;98403.59;;;27.01;44.97
68948;BME280;55996;49.546;7.400;2023-06-10T09:13:23;98399.41;;;26.98;45.42
68948;BME280;55996;49.546;7.400;2023-06-10T09:15:48;98384.25;;;27.57;45.65
68948;BME280;55996;49.546;7.400;2023-06-10T09:18:14;98393.47;;;27.62;43.06
68948;BME280;55996;49.546;7.400;2023-06-10T09:20:41;98389.63;;;27.48;44.50
68948;BME280;55996;49.546;7.400;2023-06-10T09:23:07;98388.09;;;27.62;43.93
68948;BME280;55996;49.546;7.400;2023-06-10T09:25:37;98391.13;;;28.17;44.79
68948;BME280;55996;49.546;7.400;2023-06-10T09:28:03;98384.34;;;28.46;43.18
68948;BME280;55996;49.546;7.400;2023-06-10T09:30:33;98391.88;;;28.50;42.94
68948;BME280;55996;49.546;7.400;2023-06-10T09:33:10;98382.16;;;28.33;43.24
68948;BME280;55996;49.546;7.400;2023-06-10T09:35:35;98377.78;;;28.40;41.91
68948;BME280;55996;49.546;7.400;2023-06-10T09:38:01;98395.84;;;28.15;43.08
68948;BME280;55996;49.546;7.400;2023-06-10T09:40:27;98379.97;;;28.37;40.21
68948;BME280;55996;49.546;7.400;2023-06-10T09:42:58;98386.34;;;28.44;39.53
68948;BME280;55996;49.546;7.400;2023-06-10T09:45:29;98396.16;;;28.20;39.80
68948;BME280;55996;49.546;7.400;2023-06-10T09:47:55;98383.28;;;28.55;38.97
68948;BME280;55996;49.546;7.400;2023-06-10T09:50:21;98374.03;;;28.97;41.89
68948;BME280;55996;49.546;7.400;2023-06-10T09:52:47;98371.41;;;28.89;39.50
68948;BME280;55996;49.546;7.400;2023-06-10T09:55:16;98373.53;;;29.34;38.96
68948;BME280;55996;49.546;7.400;2023-06-10T09:57:42;98375.34;;;29.33;38.82
68948;BME280;55996;49.546;7.400;2023-06-10T10:00:11;98370.69;;;29.50;38.87
68948;BME280;55996;49.546;7.400;2023-06-10T10:02:51;98366.31;;;28.94;38.97
68948;BME280;55996;49.546;7.400;2023-06-10T10:05:20;98381.03;;;29.38;38.46
68948;BME280;55996;49.546;7.400;2023-06-10T10:07:47;98377.47;;;29.46;38.79
68948;BME280;55996;49.546;7.400;2023-06-10T10:10:17;98377.56;;;29.76;37.56
68948;BME280;55996;49.546;7.400;2023-06-10T10:12:46;98366.50;;;29.71;38.23
68948;BME280;55996;49.546;7.400;2023-06-10T10:15:11;98365.53;;;30.02;36.19
68948;BME280;55996;49.546;7.400;2023-06-10T10:17:40;98363.91;;;30.16;37.28
68948;BME280;55996;49.546;7.400;2023-06-10T10:20:12;98367.63;;;30.59;37.86
68948;BME280;55996;49.546;7.400;2023-06-10T10:22:39;98365.75;;;30.15;35.52
68948;BME280;55996;49.546;7.400;2023-06-10T10:25:10;98367.34;;;30.09;35.89
68948;BME280;55996;49.546;7.400;2023-06-10T10:30:06;98369.84;;;29.26;37.31
68948;BME280;55996;49.546;7.400;2023-06-10T10:35:09;98363.38;;;28.25;36.99
68948;BME280;55996;49.546;7.400;2023-06-10T10:37:37;98364.53;;;28.30;38.32
68948;BME280;55996;49.546;7.400;2023-06-10T10:40:04;98365.88;;;28.34;38.23
68948;BME280;55996;49.546;7.400;2023-06-10T10:42:30;98367.72;;;28.82;37.89
68948;BME280;55996;49.546;7.400;2023-06-10T10:44:57;98369.06;;;29.18;38.16
68948;BME280;55996;49.546;7.400;2023-06-10T10:47:27;98355.94;;;29.46;36.43
68948;BME280;55996;49.546;7.400;2023-06-10T10:49:55;98363.22;;;29.99;36.23
68948;BME280;55996;49.546;7.400;2023-06-10T10:52:24;98350.41;;;30.31;35.64
68948;BME280;55996;49.546;7.400;2023-06-10T10:54:53;98359.44;;;30.68;34.00
68948;BME280;55996;49.546;7.400;2023-06-10T10:57:20;98343.47;;;30.88;33.69
68948;BME280;55996;49.546;7.400;2023-06-10T11:05:04;98355.19;;;29.29;35.40
68948;BME280;55996;49.546;7.400;2023-06-10T11:07:31;98351.31;;;30.08;36.68
68948;BME280;55996;49.546;7.400;2023-06-10T11:10:06;98341.59;;;30.07;34.24
68948;BME280;55996;49.546;7.400;2023-06-10T11:15:11;98342.13;;;30.17;35.24
68948;BME280;55996;49.546;7.400;2023-06-10T11:17:36;98346.88;;;29.77;35.48
68948;BME280;55996;49.546;7.400;2023-06-10T11:20:02;98354.56;;;29.65;36.08
68948;BME280;55996;49.546;7.400;2023-06-10T11:22:28;98348.03;;;29.59;35.67
68948;BME280;55996;49.546;7.400;2023-06-10T11:24:53;98338.97;;;29.99;35.54
68948;BME280;55996;49.546;7.400;2023-06-10T11:27:20;98337.03;;;30.52;34.92
68948;BME280;55996;49.546;7.400;2023-06-10T11:32:34;98344.63;;;30.19;35.22
68948;BME280;55996;49.546;7.400;2023-06-10T11:35:03;98333.28;;;30.68;33.96
68948;BME280;55996;49.546;7.400;2023-06-10T11:37:29;98328.97;;;30.89;34.70
68948;BME280;55996;49.546;7.400;2023-06-10T11:39:55;98339.63;;;30.61;33.91
68948;BME280;55996;49.546;7.400;2023-06-10T11:42:22;98341.13;;;31.00;34.13
68948;BME280;55996;49.546;7.400;2023-06-10T11:44:53;98351.44;;;30.00;33.95
68948;BME280;55996;49.546;7.400;2023-06-10T11:47:19;98348.78;;;29.53;34.58
68948;BME280;55996;49.546;7.400;2023-06-10T11:49:45;98347.38;;;29.11;36.52
68948;BME280;55996;49.546;7.400;2023-06-10T11:52:11;98345.97;;;29.85;35.37
68948;BME280;55996;49.546;7.400;2023-06-10T11:54:38;98344.19;;;30.75;34.34
68948;BME280;55996;49.546;7.400;2023-06-10T11:57:04;98330.94;;;31.38;33.57
68948;BME280;55996;49.546;7.400;2023-06-10T11:59:30;98326.53;;;31.59;33.46
68948;BME280;55996;49.546;7.400;2023-06-10T12:01:56;98327.34;;;31.81;33.17
68948;BME280;55996;49.546;7.400;2023-06-10T12:04:22;98334.56;;;32.31;33.68
68948;BME280;55996;49.546;7.400;2023-06-10T12:06:52;98316.28;;;31.69;32.19
68948;BME280;55996;49.546;7.400;2023-06-10T12:14:52;98334.88;;;30.33;33.55
68948;BME280;55996;49.546;7.400;2023-06-10T12:19:50;98335.88;;;31.13;33.24
68948;BME280;55996;49.546;7.400;2023-06-10T12:22:16;98338.16;;;30.58;32.99
68948;BME280;55996;49.546;7.400;2023-06-10T12:25:02;98325.88;;;31.29;33.31
68948;BME280;55996;49.546;7.400;2023-06-10T12:27:30;98322.88;;;31.95;32.23
68948;BME280;55996;49.546;7.400;2023-06-10T12:29:57;98314.59;;;31.97;32.23
68948;BME280;55996;49.546;7.400;2023-06-10T12:32:41;98299.44;;;31.74;31.76
68948;BME280;55996;49.546;7.400;2023-06-10T12:35:08;98313.63;;;31.33;32.98
68948;BME280;55996;49.546;7.400;2023-06-10T12:37:35;98307.44;;;31.89;33.14
68948;BME280;55996;49.546;7.400;2023-06-10T12:40:04;98320.97;;;31.17;33.95
68948;BME280;55996;49.546;7.400;2023-06-10T12:42:36;98325.19;;;30.68;33.19
68948;BME280;55996;49.546;7.400;2023-06-10T12:45:03;98314.03;;;30.93;33.30
68948;BME280;55996;49.546;7.400;2023-06-10T12:47:34;98306.47;;;31.68;35.33
68948;BME280;55996;49.546;7.400;2023-06-10T12:50:01;98313.38;;;31.71;32.37
68948;BME280;55996;49.546;7.400;2023-06-10T12:52:27;98326.59;;;30.64;33.71
68948;BME280;55996;49.546;7.400;2023-06-10T12:54:53;98309.16;;;29.77;35.20
68948;BME280;55996;49.546;7.400;2023-06-10T12:57:20;98317.72;;;29.81;35.01
68948;BME280;55996;49.546;7.400;2023-06-10T12:59:46;98323.00;;;29.74;35.80
68948;BME280;55996;49.546;7.400;2023-06-10T13:02:16;98321.03;;;29.68;35.31
68948;BME280;55996;49.546;7.400;2023-06-10T13:04:44;98321.50;;;30.39;35.30
68948;BME280;55996;49.546;7.400;2023-06-10T13:07:09;98302.47;;;31.36;34.63
68948;BME280;55996;49.546;7.400;2023-06-10T13:09:36;98305.03;;;32.36;33.79
68948;BME280;55996;49.546;7.400;2023-06-10T13:12:01;98302.97;;;32.03;32.47
68948;BME280;55996;49.546;7.400;2023-06-10T13:14:27;98295.13;;;32.57;32.82
68948;BME280;55996;49.546;7.400;2023-06-10T13:16:54;98290.81;;;32.62;32.96
68948;BME280;55996;49.546;7.400;2023-06-10T13:19:20;98296.16;;;32.49;31.79
68948;BME280;55996;49.546;7.400;2023-06-10T13:21:47;98301.94;;;31.26;33.23
68948;BME280;55996;49.546;7.400;2023-06-10T13:24:12;98308.38;;;30.21;34.13